createdAt,value
2023-05-13T00:01:50.408Z,101022.63
2023-05-13T00:04:17.214Z,101016.88
2023-05-13T00:06:43.709Z,101028.88
2023-05-13T00:09:10.277Z,101023.72
2023-05-13T00:11:36.785Z,101023.69
2023-05-13T00:14:04.010Z,101025.47
2023-05-13T00:16:30.784Z,101017.56
2023-05-13T00:18:57.814Z,101024.13
2023-05-13T00:21:24.420Z,101023.09
2023-05-13T00:23:50.857Z,101022.91
2023-05-13T00:26:17.447Z,101015.25
2023-05-13T00:28:43.970Z,101017.66
2023-05-13T00:31:10.639Z,101024.59
2023-05-13T00:33:37.570Z,101025.44
2023-05-13T00:36:04.382Z,101027.66
2023-05-13T00:38:39.859Z,101037.63
2023-05-13T00:41:07.049Z,101040.34
2023-05-13T00:43:33.626Z,101039.59
2023-05-13T00:46:00.414Z,101037.56
2023-05-13T00:48:27.014Z,101033.28
2023-05-13T00:50:53.675Z,101042.78
2023-05-13T00:53:20.224Z,101040.41
2023-05-13T00:55:47.178Z,101040.22
2023-05-13T00:58:14.346Z,101037.28
2023-05-13T01:00:56.264Z,101034.31
2023-05-13T01:03:34.984Z,101040.38
2023-05-13T01:06:13.904Z,101032.03
2023-05-13T01:08:49.809Z,101029.03
2023-05-13T01:11:41.322Z,101039.66
2023-05-13T01:14:22.527Z,101030.91
2023-05-13T01:16:50.677Z,101028.44
2023-05-13T01:19:28.645Z,101027.78
2023-05-13T01:21:55.688Z,101026.47
2023-05-13T01:24:22.964Z,101028.38
2023-05-13T01:26:49.571Z,101036.09
2023-05-13T01:29:16.520Z,101034.09
2023-05-13T01:31:43.776Z,101035.72
2023-05-13T01:34:13.166Z,101027.31
2023-05-13T01:36:40.074Z,101033.59
2023-05-13T01:39:08.574Z,101025.78
2023-05-13T01:41:35.376Z,101037.13
2023-05-13T01:44:02.006Z,101035.75
2023-05-13T01:46:28.575Z,101037.25
2023-05-13T01:48:55.096Z,101032.97
2023-05-13T01:51:21.685Z,101038.19
2023-05-13T01:53:48.189Z,101045.03
2023-05-13T01:56:14.870Z,101047.03
2023-05-13T01:58:41.695Z,101052.47
2023-05-13T02:01:08.166Z,101046.03
2023-05-13T02:03:36.669Z,101048.03
2023-05-13T02:06:03.330Z,101045.34
2023-05-13T02:08:30.922Z,101050.50
2023-05-13T02:10:58.651Z,101045.88
2023-05-13T02:13:26.427Z,101046.69
2023-05-13T02:15:54.440Z,101051.31
2023-05-13T02:18:21.131Z,101056.13
2023-05-13T02:20:48.188Z,101051.16
2023-05-13T02:23:17.758Z,101049.81
2023-05-13T02:25:44.459Z,101048.03
2023-05-13T02:28:11.090Z,101050.91
2023-05-13T02:30:37.624Z,101058.50
2023-05-13T02:33:04.151Z,101057.50
2023-05-13T02:35:30.881Z,101056.69
2023-05-13T02:37:58.044Z,101059.84
2023-05-13T02:40:24.593Z,101059.03
2023-05-13T02:42:51.156Z,101063.09
2023-05-13T02:45:17.996Z,101057.13
2023-05-13T02:47:44.542Z,101056.38
2023-05-13T02:50:12.472Z,101057.78
2023-05-13T02:52:40.312Z,101051.00
2023-05-13T02:55:07.767Z,101046.22
2023-05-13T02:57:34.371Z,101050.03
2023-05-13T03:00:00.896Z,101052.75
2023-05-13T03:02:28.515Z,101045.75
2023-05-13T03:04:55.576Z,101057.03
2023-05-13T03:07:23.807Z,101051.28
2023-05-13T03:09:50.542Z,101059.84
2023-05-13T03:12:17.523Z,101055.25
2023-05-13T03:14:44.554Z,101046.22
2023-05-13T03:17:11.418Z,101057.66
2023-05-13T03:19:39.026Z,101057.69
2023-05-13T03:22:06.130Z,101062.72
2023-05-13T03:24:32.864Z,101058.13
2023-05-13T03:26:59.484Z,101046.88
2023-05-13T03:29:26.054Z,101054.41
2023-05-13T03:31:53.210Z,101057.13
2023-05-13T03:34:20.066Z,101057.19
2023-05-13T03:36:46.535Z,101063.75
2023-05-13T03:39:13.035Z,101056.22
2023-05-13T03:41:39.565Z,101052.25
2023-05-13T03:44:06.171Z,101054.88
2023-05-13T03:46:34.132Z,101059.16
2023-05-13T03:49:00.695Z,101056.22
2023-05-13T03:51:27.462Z,101062.03
2023-05-13T03:53:54.030Z,101055.72
2023-05-13T03:56:21.615Z,101059.41
2023-05-13T03:58:48.372Z,101056.03
2023-05-13T04:01:14.976Z,101059.03
2023-05-13T04:03:44.198Z,101064.47
2023-05-13T04:06:11.037Z,101068.44
2023-05-13T04:08:37.720Z,101069.03
2023-05-13T04:11:04.264Z,101068.50
2023-05-13T04:13:30.971Z,101069.91
2023-05-13T04:15:58.065Z,101069.44
2023-05-13T04:18:24.631Z,101073.78
2023-05-13T04:20:51.123Z,101074.88
2023-05-13T04:23:17.735Z,101074.72
2023-05-13T04:25:50.664Z,101077.44
2023-05-13T04:28:18.029Z,101081.28
2023-05-13T04:30:44.747Z,101080.16
2023-05-13T04:33:11.653Z,101081.50
2023-05-13T04:35:38.278Z,101087.56
2023-05-13T04:38:05.709Z,101099.06
2023-05-13T04:40:32.242Z,101094.06
2023-05-13T04:42:58.744Z,101095.84
2023-05-13T04:45:25.345Z,101097.72
2023-05-13T04:47:51.921Z,101093.78
2023-05-13T04:50:18.603Z,101096.44
2023-05-13T04:52:47.240Z,101098.50
2023-05-13T04:55:13.946Z,101108.97
2023-05-13T04:57:40.509Z,101108.28
2023-05-13T05:00:09.441Z,101102.97
2023-05-13T05:02:36.052Z,101101.53
2023-05-13T05:05:02.624Z,101101.97
2023-05-13T05:07:29.356Z,101097.25
2023-05-13T05:09:55.837Z,101097.97
2023-05-13T05:12:22.645Z,101099.19
2023-05-13T05:14:49.395Z,101100.75
2023-05-13T05:17:16.116Z,101103.63
2023-05-13T05:19:42.616Z,101101.09
2023-05-13T05:22:09.116Z,101108.31
2023-05-13T05:24:35.712Z,101110.75
2023-05-13T05:27:02.304Z,101110.84
2023-05-13T05:29:28.846Z,101108.88
2023-05-13T05:31:55.756Z,101111.63
2023-05-13T05:34:22.602Z,101122.63
2023-05-13T05:36:49.095Z,101129.19
2023-05-13T05:39:15.655Z,101130.00
2023-05-13T05:41:42.898Z,101128.00
2023-05-13T05:44:09.787Z,101134.91
2023-05-13T05:46:36.258Z,101131.78
2023-05-13T05:49:03.609Z,101132.47
2023-05-13T05:51:30.870Z,101131.81
2023-05-13T05:53:57.681Z,101136.63
2023-05-13T05:56:24.170Z,101133.88
2023-05-13T05:58:50.681Z,101136.41
2023-05-13T06:01:17.154Z,101124.84
2023-05-13T06:03:43.852Z,101128.00
2023-05-13T06:06:10.510Z,101137.38
2023-05-13T06:08:37.020Z,101136.63
2023-05-13T06:11:03.593Z,101140.47
2023-05-13T06:13:30.317Z,101143.66
2023-05-13T06:15:57.386Z,101145.31
2023-05-13T06:18:24.101Z,101144.34
2023-05-13T06:20:50.786Z,101145.28
2023-05-13T06:23:17.574Z,101138.41
2023-05-13T06:25:44.059Z,101134.28
2023-05-13T06:28:12.048Z,101136.84
2023-05-13T06:30:38.724Z,101147.47
2023-05-13T06:33:05.484Z,101144.22
2023-05-13T06:35:32.145Z,101133.34
2023-05-13T06:37:58.893Z,101135.00
2023-05-13T06:40:25.446Z,101141.84
2023-05-13T06:42:51.895Z,101136.69
2023-05-13T06:45:23.435Z,101136.03
2023-05-13T06:47:53.832Z,101141.72
2023-05-13T06:50:20.971Z,101134.13
2023-05-13T06:52:47.795Z,101131.25
2023-05-13T06:55:14.910Z,101135.47
2023-05-13T06:57:43.803Z,101135.19
2023-05-13T07:00:11.001Z,101144.25
2023-05-13T07:02:37.765Z,101141.81
2023-05-13T07:05:05.042Z,101137.50
2023-05-13T07:07:31.875Z,101137.44
2023-05-13T07:09:58.803Z,101138.34
2023-05-13T07:12:26.218Z,101131.69
2023-05-13T07:14:54.237Z,101126.59
2023-05-13T07:17:20.817Z,101129.19
2023-05-13T07:19:47.592Z,101124.13
2023-05-13T07:22:14.158Z,101124.81
2023-05-13T07:24:43.120Z,101127.38
2023-05-13T07:27:09.751Z,101124.19
2023-05-13T07:29:36.234Z,101129.22
2023-05-13T07:32:06.293Z,101124.97
2023-05-13T07:34:33.074Z,101127.38
2023-05-13T07:36:59.749Z,101122.94
2023-05-13T07:39:27.830Z,101129.16
2023-05-13T07:41:54.980Z,101124.91
2023-05-13T07:44:21.952Z,101124.94
2023-05-13T07:46:49.713Z,101132.03
2023-05-13T07:49:16.302Z,101126.75
2023-05-13T07:51:42.907Z,101126.75
2023-05-13T07:54:10.009Z,101120.25
2023-05-13T07:56:38.040Z,101122.94
2023-05-13T07:59:04.865Z,101131.91
2023-05-13T08:01:31.512Z,101119.50
2023-05-13T08:03:58.209Z,101122.88
2023-05-13T08:06:25.002Z,101125.13
2023-05-13T08:08:51.643Z,101128.31
2023-05-13T08:11:18.144Z,101125.31
2023-05-13T08:13:44.702Z,101118.13
2023-05-13T08:16:11.487Z,101126.53
2023-05-13T08:18:38.091Z,101126.41
2023-05-13T08:21:04.935Z,101121.53
2023-05-13T08:23:43.898Z,101119.78
2023-05-13T08:26:12.290Z,101117.81
2023-05-13T08:28:38.783Z,101114.03
2023-05-13T08:31:09.409Z,101122.28
2023-05-13T08:33:36.210Z,101124.44
2023-05-13T08:36:06.274Z,101114.69
2023-05-13T08:38:33.587Z,101123.31
2023-05-13T08:41:00.619Z,101118.41
2023-05-13T08:43:28.120Z,101127.91
2023-05-13T08:45:56.698Z,101118.00
2023-05-13T08:48:24.685Z,101113.06
2023-05-13T08:50:52.181Z,101115.06
2023-05-13T08:53:21.661Z,101118.53
2023-05-13T08:55:48.534Z,101120.22
2023-05-13T08:58:15.041Z,101117.53
2023-05-13T09:00:41.972Z,101121.78
2023-05-13T09:03:08.697Z,101114.09
2023-05-13T09:05:38.796Z,101114.06
2023-05-13T09:08:09.756Z,101116.25
2023-05-13T09:10:37.089Z,101119.88
2023-05-13T09:13:04.037Z,101118.88
2023-05-13T09:15:31.309Z,101116.13
2023-05-13T09:18:06.152Z,101108.78
2023-05-13T09:20:35.586Z,101102.72
2023-05-13T09:23:11.961Z,101093.97
2023-05-13T09:25:39.189Z,101091.13
2023-05-13T09:28:07.725Z,101088.19
2023-05-13T09:30:36.633Z,101106.47
2023-05-13T09:33:11.961Z,101102.09
2023-05-13T09:35:58.850Z,101099.09
2023-05-13T09:38:32.131Z,101093.28
2023-05-13T09:41:00.314Z,101095.50
2023-05-13T09:43:34.675Z,101090.25
2023-05-13T09:46:03.397Z,101088.78
2023-05-13T09:48:32.637Z,101085.47
2023-05-13T09:50:59.410Z,101087.16
2023-05-13T09:53:27.109Z,101094.31
2023-05-13T09:56:00.044Z,101087.06
2023-05-13T09:58:31.068Z,101082.53
2023-05-13T10:00:58.533Z,101082.63
2023-05-13T10:03:27.119Z,101082.34
2023-05-13T10:05:53.797Z,101072.78
2023-05-13T10:08:22.312Z,101075.50
2023-05-13T10:10:50.863Z,101087.06
2023-05-13T10:13:22.735Z,101071.38
2023-05-13T10:15:51.826Z,101072.13
2023-05-13T10:18:19.814Z,101079.03
2023-05-13T10:20:47.592Z,101079.44
2023-05-13T10:23:14.202Z,101080.31
2023-05-13T10:25:42.742Z,101078.19
2023-05-13T10:28:10.682Z,101078.88
2023-05-13T10:30:38.479Z,101079.41
2023-05-13T10:33:05.227Z,101077.69
2023-05-13T10:35:37.503Z,101067.00
2023-05-13T10:38:21.817Z,101072.94
2023-05-13T10:41:18.799Z,101075.72
2023-05-13T10:43:46.459Z,101083.88
2023-05-13T10:46:13.951Z,101089.75
2023-05-13T10:48:48.684Z,101078.16
2023-05-13T10:51:18.318Z,101070.75
2023-05-13T10:53:55.755Z,101078.38
2023-05-13T10:56:27.886Z,101075.22
2023-05-13T10:59:02.781Z,101078.50
2023-05-13T11:01:30.244Z,101075.78
2023-05-13T11:04:00.068Z,101076.63
2023-05-13T11:06:37.464Z,101064.53
2023-05-13T11:09:28.905Z,101063.81
2023-05-13T11:11:59.781Z,101054.53
2023-05-13T11:14:27.715Z,101060.59
2023-05-13T11:17:08.025Z,101060.56
2023-05-13T11:19:45.328Z,101054.19
2023-05-13T11:22:19.016Z,101073.84
2023-05-13T11:24:47.701Z,101072.47
2023-05-13T11:27:20.143Z,101066.97
2023-05-13T11:29:52.219Z,101070.50
2023-05-13T11:32:53.497Z,101070.66
2023-05-13T11:35:21.797Z,101067.84
2023-05-13T11:37:51.643Z,101074.41
2023-05-13T11:40:28.329Z,101072.38
2023-05-13T11:42:55.403Z,101065.25
2023-05-13T11:45:26.394Z,101070.94
2023-05-13T11:47:54.122Z,101065.19
2023-05-13T11:50:22.678Z,101068.13
2023-05-13T11:52:53.423Z,101066.97
2023-05-13T11:55:30.003Z,101070.53
2023-05-13T11:57:57.171Z,101064.78
2023-05-13T12:00:27.658Z,101065.69
2023-05-13T12:02:54.953Z,101056.84
2023-05-13T12:05:22.675Z,101060.97
2023-05-13T12:07:49.552Z,101053.16
2023-05-13T12:10:16.489Z,101061.06
2023-05-13T12:12:45.508Z,101060.19
2023-05-13T12:15:15.703Z,101056.41
2023-05-13T12:17:42.714Z,101063.31
2023-05-13T12:20:15.292Z,101057.91
2023-05-13T12:22:44.890Z,101054.03
2023-05-13T12:25:44.917Z,101041.94
2023-05-13T12:28:21.236Z,101035.72
2023-05-13T12:31:02.227Z,101031.44
2023-05-13T12:33:30.928Z,101045.19
2023-05-13T12:36:16.222Z,101049.81
2023-05-13T12:39:01.223Z,101049.00
2023-05-13T12:41:30.329Z,101057.16
2023-05-13T12:44:04.276Z,101050.25
2023-05-13T12:46:31.942Z,101063.34
2023-05-13T12:49:00.659Z,101063.94
2023-05-13T12:51:28.516Z,101054.41
2023-05-13T12:53:56.233Z,101048.50
2023-05-13T12:56:24.220Z,101041.97
2023-05-13T12:58:52.613Z,101050.88
2023-05-13T13:01:19.444Z,101062.09
2023-05-13T13:03:46.125Z,101048.03
2023-05-13T13:06:13.530Z,101042.28
2023-05-13T13:08:40.641Z,101042.94
2023-05-13T13:11:07.281Z,101043.59
2023-05-13T13:13:33.810Z,101047.56
2023-05-13T13:16:01.018Z,101048.50
2023-05-13T13:18:27.976Z,101046.63
2023-05-13T13:20:54.897Z,101039.97
2023-05-13T13:23:21.443Z,101039.00
2023-05-13T13:25:48.253Z,101039.66
2023-05-13T13:28:15.195Z,101041.59
2023-05-13T13:30:46.548Z,101043.44
2023-05-13T13:33:15.116Z,101046.41
2023-05-13T13:35:43.821Z,101050.84
2023-05-13T13:38:10.507Z,101049.03
2023-05-13T13:40:37.141Z,101054.34
2023-05-13T13:43:04.447Z,101044.25
2023-05-13T13:45:31.387Z,101048.53
2023-05-13T13:47:59.260Z,101061.38
2023-05-13T13:50:26.472Z,101058.97
2023-05-13T13:52:53.306Z,101065.59
2023-05-13T13:55:21.738Z,101079.78
2023-05-13T13:57:48.674Z,101067.97
2023-05-13T14:00:16.949Z,101077.06
2023-05-13T14:02:44.310Z,101088.53
2023-05-13T14:05:12.519Z,101085.53
2023-05-13T14:07:39.686Z,101083.50
2023-05-13T14:10:07.188Z,101083.28
2023-05-13T14:12:35.758Z,101075.69
2023-05-13T14:15:02.504Z,101072.59
2023-05-13T14:17:29.154Z,101072.34
2023-05-13T14:19:58.810Z,101079.47
2023-05-13T14:22:25.332Z,101078.22
2023-05-13T14:24:52.710Z,101079.81
2023-05-13T14:27:21.085Z,101074.53
2023-05-13T14:29:51.630Z,101076.72
2023-05-13T14:32:18.351Z,101078.41
2023-05-13T14:34:44.926Z,101084.25
2023-05-13T14:37:11.763Z,101078.91
2023-05-13T14:39:40.985Z,101072.72
2023-05-13T14:42:10.860Z,101078.91
2023-05-13T14:44:37.407Z,101078.88
2023-05-13T14:47:04.107Z,101075.38
2023-05-13T14:49:33.378Z,101080.72
2023-05-13T14:52:00.105Z,101091.63
2023-05-13T14:54:26.807Z,101087.78
2023-05-13T14:56:53.591Z,101086.03
2023-05-13T14:59:20.467Z,101074.06
2023-05-13T15:01:46.970Z,101079.03
2023-05-13T15:04:14.482Z,101066.34
2023-05-13T15:06:41.052Z,101071.38
2023-05-13T15:09:07.519Z,101069.53
2023-05-13T15:11:33.993Z,101074.97
2023-05-13T15:14:01.805Z,101067.84
2023-05-13T15:16:28.683Z,101065.63
2023-05-13T15:18:55.356Z,101073.16
2023-05-13T15:21:21.909Z,101071.34
2023-05-13T15:23:48.869Z,101076.19
2023-05-13T15:26:15.608Z,101070.78
2023-05-13T15:28:42.377Z,101082.38
2023-05-13T15:31:08.970Z,101083.28
2023-05-13T15:33:35.791Z,101077.75
2023-05-13T15:36:02.545Z,101078.56
2023-05-13T15:38:38.912Z,101079.28
2023-05-13T15:41:05.417Z,101077.47
2023-05-13T15:43:32.120Z,101083.78
2023-05-13T15:45:59.196Z,101078.34
2023-05-13T15:48:26.515Z,101082.28
2023-05-13T15:50:54.097Z,101089.44
2023-05-13T15:53:20.840Z,101083.41
2023-05-13T15:55:47.464Z,101084.06
2023-05-13T15:58:15.541Z,101080.97
2023-05-13T16:00:42.210Z,101081.19
2023-05-13T16:03:08.731Z,101079.56
2023-05-13T16:05:36.376Z,101073.16
2023-05-13T16:08:02.855Z,101068.09
2023-05-13T16:10:30.392Z,101072.56
2023-05-13T16:12:56.903Z,101069.59
2023-05-13T16:15:23.797Z,101068.78
2023-05-13T16:17:50.580Z,101066.59
2023-05-13T16:20:17.140Z,101068.44
2023-05-13T16:22:44.055Z,101063.25
2023-05-13T16:25:11.930Z,101067.03
2023-05-13T16:27:40.119Z,101064.94
2023-05-13T16:30:08.042Z,101068.03
2023-05-13T16:32:37.873Z,101063.09
2023-05-13T16:35:05.961Z,101066.31
2023-05-13T16:37:35.361Z,101066.19
2023-05-13T16:40:02.123Z,101062.28
2023-05-13T16:42:28.631Z,101059.38
2023-05-13T16:44:55.388Z,101067.41
2023-05-13T16:47:21.996Z,101054.91
2023-05-13T16:49:50.069Z,101052.03
2023-05-13T16:52:16.731Z,101058.22
2023-05-13T16:54:43.392Z,101057.06
2023-05-13T16:57:10.239Z,101060.75
2023-05-13T16:59:36.826Z,101064.69
2023-05-13T17:02:03.638Z,101067.88
2023-05-13T17:04:30.421Z,101061.31
2023-05-13T17:06:59.044Z,101063.19
2023-05-13T17:09:25.959Z,101062.72
2023-05-13T17:11:54.441Z,101056.63
2023-05-13T17:14:22.015Z,101059.16
2023-05-13T17:16:48.904Z,101063.88
2023-05-13T17:19:16.058Z,101051.59
2023-05-13T17:21:44.084Z,101055.03
2023-05-13T17:24:10.911Z,101056.50
2023-05-13T17:26:38.997Z,101049.72
2023-05-13T17:29:06.160Z,101053.44
2023-05-13T17:31:33.247Z,101057.31
2023-05-13T17:33:59.844Z,101057.84
2023-05-13T17:36:26.406Z,101057.69
2023-05-13T17:38:53.173Z,101054.75
2023-05-13T17:41:19.774Z,101062.00
2023-05-13T17:43:46.417Z,101064.16
2023-05-13T17:46:13.286Z,101067.47
2023-05-13T17:48:40.103Z,101069.09
2023-05-13T17:51:06.842Z,101065.19
2023-05-13T17:53:34.904Z,101068.25
2023-05-13T17:56:01.928Z,101066.00
2023-05-13T17:58:28.841Z,101063.94
2023-05-13T18:00:55.570Z,101071.41
2023-05-13T18:03:22.479Z,101078.75
2023-05-13T18:05:49.444Z,101082.38
2023-05-13T18:08:16.064Z,101070.28
2023-05-13T18:10:42.720Z,101075.94
2023-05-13T18:13:09.301Z,101090.06
2023-05-13T18:15:35.890Z,101084.38
2023-05-13T18:18:03.791Z,101091.81
2023-05-13T18:20:34.097Z,101088.13
2023-05-13T18:23:03.366Z,101087.31
2023-05-13T18:25:31.440Z,101092.34
2023-05-13T18:27:58.251Z,101088.94
2023-05-13T18:30:25.051Z,101094.00
2023-05-13T18:32:51.778Z,101089.94
2023-05-13T18:35:21.289Z,101095.13
2023-05-13T18:37:48.215Z,101095.13
2023-05-13T18:40:14.711Z,101092.06
2023-05-13T18:42:41.488Z,101097.56
2023-05-13T18:45:08.502Z,101098.41
2023-05-13T18:47:35.084Z,101096.19
2023-05-13T18:50:02.058Z,101108.13
2023-05-13T18:52:28.550Z,101104.88
2023-05-13T18:54:55.080Z,101120.06
2023-05-13T18:57:21.684Z,101109.88
2023-05-13T18:59:48.254Z,101117.16
2023-05-13T19:02:14.946Z,101127.16
2023-05-13T19:04:41.944Z,101123.47
2023-05-13T19:07:08.578Z,101123.78
2023-05-13T19:09:36.293Z,101128.47
2023-05-13T19:12:03.133Z,101126.19
2023-05-13T19:14:29.756Z,101133.94
2023-05-13T19:16:56.398Z,101134.59
2023-05-13T19:19:24.512Z,101139.25
2023-05-13T19:21:51.075Z,101135.88
2023-05-13T19:24:17.610Z,101132.00
2023-05-13T19:26:44.143Z,101125.06
2023-05-13T19:29:10.939Z,101119.59
2023-05-13T19:31:37.554Z,101127.66
2023-05-13T19:34:04.518Z,101128.94
2023-05-13T19:36:31.064Z,101134.28
2023-05-13T19:38:57.673Z,101138.94
2023-05-13T19:41:24.365Z,101141.38
2023-05-13T19:43:50.850Z,101136.53
2023-05-13T19:46:17.499Z,101140.88
2023-05-13T19:48:44.095Z,101132.63
2023-05-13T19:51:10.555Z,101138.91
2023-05-13T19:53:37.566Z,101123.75
2023-05-13T19:56:04.983Z,101130.03
2023-05-13T19:58:31.896Z,101133.09
2023-05-13T20:00:58.490Z,101134.59
2023-05-13T20:03:25.162Z,101140.53
2023-05-13T20:05:53.137Z,101138.09
2023-05-13T20:08:20.974Z,101138.78
2023-05-13T20:10:47.571Z,101140.72
2023-05-13T20:13:14.231Z,101140.22
2023-05-13T20:15:42.652Z,101131.97
2023-05-13T20:18:09.271Z,101131.84
2023-05-13T20:20:36.269Z,101136.00
2023-05-13T20:23:02.762Z,101129.88
2023-05-13T20:25:29.271Z,101140.00
2023-05-13T20:27:55.768Z,101141.47
2023-05-13T20:30:22.750Z,101140.53
2023-05-13T20:32:49.405Z,101130.31
2023-05-13T20:35:16.119Z,101129.38
2023-05-13T20:37:42.923Z,101126.94
2023-05-13T20:40:09.892Z,101126.63
2023-05-13T20:42:36.673Z,101122.44
2023-05-13T20:45:04.557Z,101125.94
2023-05-13T20:47:31.313Z,101115.59
2023-05-13T20:49:58.178Z,101131.91
2023-05-13T20:52:25.051Z,101124.31
2023-05-13T20:54:51.709Z,101122.88
2023-05-13T20:57:18.177Z,101118.69
2023-05-13T20:59:44.662Z,101120.22
2023-05-13T21:02:11.209Z,101116.06
2023-05-13T21:04:37.838Z,101118.19
2023-05-13T21:07:06.972Z,101110.09
2023-05-13T21:09:33.576Z,101119.00
2023-05-13T21:12:00.220Z,101115.09
2023-05-13T21:14:26.811Z,101111.53
2023-05-13T21:16:53.589Z,101119.72
2023-05-13T21:19:22.242Z,101119.09
2023-05-13T21:21:48.886Z,101116.97
2023-05-13T21:24:19.316Z,101117.25
2023-05-13T21:26:46.718Z,101116.97
2023-05-13T21:29:13.236Z,101116.16
2023-05-13T21:31:39.755Z,101121.63
2023-05-13T21:34:06.426Z,101116.47
2023-05-13T21:36:34.108Z,101120.88
2023-05-13T21:39:00.940Z,101124.56
2023-05-13T21:41:27.384Z,101113.72
2023-05-13T21:43:54.128Z,101117.44
2023-05-13T21:46:20.648Z,101120.09
2023-05-13T21:48:47.710Z,101121.81
2023-05-13T21:51:14.212Z,101119.84
2023-05-13T21:53:40.837Z,101120.00
2023-05-13T21:56:07.601Z,101117.59
2023-05-13T21:58:34.185Z,101115.81
2023-05-13T22:01:01.285Z,101118.84
2023-05-13T22:03:27.907Z,101114.38
2023-05-13T22:05:54.401Z,101112.53
2023-05-13T22:08:21.198Z,101110.72
2023-05-13T22:10:47.863Z,101119.13
2023-05-13T22:13:14.448Z,101116.00
2023-05-13T22:15:41.307Z,101111.16
2023-05-13T22:18:08.174Z,101114.31
2023-05-13T22:20:34.745Z,101122.44
2023-05-13T22:23:01.322Z,101115.00
2023-05-13T22:25:27.820Z,101107.56
2023-05-13T22:27:54.564Z,101110.91
2023-05-13T22:30:21.447Z,101111.00
2023-05-13T22:32:48.350Z,101111.56
2023-05-13T22:35:14.869Z,101110.75
2023-05-13T22:37:41.460Z,101107.00
2023-05-13T22:40:10.499Z,101110.44
2023-05-13T22:42:37.161Z,101103.69
2023-05-13T22:45:04.581Z,101109.56
2023-05-13T22:47:31.167Z,101104.75
2023-05-13T22:49:57.811Z,101100.16
2023-05-13T22:52:24.390Z,101102.53
2023-05-13T22:54:51.124Z,101108.38
2023-05-13T22:57:17.591Z,101102.78
2023-05-13T22:59:44.126Z,101108.25
2023-05-13T23:02:10.982Z,101111.38
2023-05-13T23:04:37.716Z,101107.81
2023-05-13T23:07:04.463Z,101109.44
2023-05-13T23:09:31.206Z,101104.06
2023-05-13T23:11:57.933Z,101102.78
2023-05-13T23:14:27.847Z,101097.25
2023-05-13T23:16:54.874Z,101101.72
2023-05-13T23:19:21.795Z,101092.78
2023-05-13T23:21:48.275Z,101086.00
2023-05-13T23:24:14.740Z,101093.34
2023-05-13T23:26:43.866Z,101091.00
2023-05-13T23:29:11.278Z,101088.19
2023-05-13T23:31:40.478Z,101089.44
2023-05-13T23:34:08.171Z,101090.75
2023-05-13T23:36:35.250Z,101084.88
2023-05-13T23:39:01.954Z,101092.84
2023-05-13T23:41:28.698Z,101079.41
2023-05-13T23:43:55.480Z,101087.94
2023-05-13T23:46:22.216Z,101079.66
2023-05-13T23:48:48.859Z,101086.81
2023-05-13T23:51:15.325Z,101080.69
2023-05-13T23:53:41.777Z,101085.66
2023-05-13T23:56:08.260Z,101087.78
2023-05-13T23:58:34.809Z,101079.88
